PWSweather.com
Personal Weather Stations
Station Observations
IMAZOWIE6
WarszawaPL

WarszawaPL

Lat: 52.27957, Lon: 21.05489

Elevation: 100

Station Type: WS1080

http://stacjapogody.waw.pl/

High Low Average
Temperature 41.9°F5.5°C 31.8°F-0.1°C 36.4°F2.4°C
Dew Point -168.6°F-111.4°C -169.6°F-112.0°C -169.2°F-111.8°C
Winds 6.2 mph 10.0 kmh Calm Calm 1.0 mph N1.6 kmh N
Wind Gusts 13.6 mph21.9 kmh 0.6 mph1.0 kmh 4.0 mph6.4 kmh
Humidity - - -
Pressure 29.29 in991.9 mb 28.91 in979.0 mb -
Precipitation 0.00 in0.0 mm - -
Hour Temp Dew Point Humidity Winds Wind Gusts Pressure Precip Precip Rate Daily Precip Total
12:01 AM 31.8°F-0.1°C -169.6°F-112.0°C - Calm Calm 0.6 mph1.0 kmh 29.29 in991.9 mb 0.00 in0.0 mm 0.00 in0.0 mm 0.00 in0.0 mm
12:16 AM 31.8°F-0.1°C -169.6°F-112.0°C - 0.6 mph N1.0 kmh N 3.4 mph5.5 kmh 29.28 in991.5 mb 0.00 in0.0 mm 0.00 in0.0 mm 0.00 in0.0 mm
12:31 AM 31.8°F-0.1°C -169.6°F-112.0°C - 1.4 mph N2.3 kmh N 4.0 mph6.4 kmh 29.27 in991.2 mb 0.00 in0.0 mm 0.00 in0.0 mm 0.00 in0.0 mm
12:46 AM 31.8°F-0.1°C -169.6°F-112.0°C - Calm Calm 0.6 mph1.0 kmh 29.26 in990.9 mb 0.00 in0.0 mm 0.00 in0.0 mm 0.00 in0.0 mm
01:00 AM 31.8°F-0.1°C -169.6°F-112.0°C - Calm Calm 0.6 mph1.0 kmh 29.26 in990.9 mb 0.00 in0.0 mm 0.00 in0.0 mm 0.00 in0.0 mm
01:16 AM 31.8°F-0.1°C -169.6°F-112.0°C - Calm Calm 0.6 mph1.0 kmh 29.26 in990.9 mb 0.00 in0.0 mm 0.00 in0.0 mm 0.00 in0.0 mm
01:31 AM 32.2°F0.1°C -169.6°F-112.0°C - 1.4 mph N2.3 kmh N 4.0 mph6.4 kmh 29.22 in989.5 mb 0.00 in0.0 mm 0.00 in0.0 mm 0.00 in0.0 mm
01:46 AM 32.0°F0.0°C -169.6°F-112.0°C - 1.4 mph N2.3 kmh N 6.2 mph10.0 kmh 29.21 in989.2 mb 0.00 in0.0 mm 0.00 in0.0 mm 0.00 in0.0 mm
02:01 AM 32.0°F0.0°C -169.6°F-112.0°C - 0.6 mph N1.0 kmh N 2.0 mph3.2 kmh 29.20 in988.8 mb 0.00 in0.0 mm 0.00 in0.0 mm 0.00 in0.0 mm
02:16 AM 32.0°F0.0°C -169.6°F-112.0°C - 0.6 mph N1.0 kmh N 2.8 mph4.5 kmh 29.19 in988.5 mb 0.00 in0.0 mm 0.00 in0.0 mm 0.00 in0.0 mm
02:31 AM 31.8°F-0.1°C -169.6°F-112.0°C - 2.0 mph N3.2 kmh N 4.8 mph7.7 kmh 29.17 in987.8 mb 0.00 in0.0 mm 0.00 in0.0 mm 0.00 in0.0 mm
02:46 AM 32.0°F0.0°C -169.6°F-112.0°C - 1.4 mph N2.3 kmh N 4.8 mph7.7 kmh 29.17 in987.8 mb 0.00 in0.0 mm 0.00 in0.0 mm 0.00 in0.0 mm
03:01 AM 32.0°F0.0°C -169.6°F-112.0°C - 2.8 mph N4.5 kmh N 6.8 mph10.9 kmh 29.16 in987.5 mb 0.00 in0.0 mm 0.00 in0.0 mm 0.00 in0.0 mm
03:16 AM 32.0°F0.0°C -169.6°F-112.0°C - 1.4 mph N2.3 kmh N 3.4 mph5.5 kmh 29.14 in986.8 mb 0.00 in0.0 mm 0.00 in0.0 mm 0.00 in0.0 mm
03:31 AM 32.0°F0.0°C -169.6°F-112.0°C - 1.4 mph N2.3 kmh N 4.8 mph7.7 kmh 29.13 in986.5 mb 0.00 in0.0 mm 0.00 in0.0 mm 0.00 in0.0 mm
03:45 AM 32.0°F0.0°C -169.6°F-112.0°C - 1.4 mph N2.3 kmh N 4.8 mph7.7 kmh 29.13 in986.5 mb 0.00 in0.0 mm 0.00 in0.0 mm 0.00 in0.0 mm
04:01 AM 32.0°F0.0°C -169.6°F-112.0°C - 2.0 mph N3.2 kmh N 5.4 mph8.7 kmh 29.12 in986.1 mb 0.00 in0.0 mm 0.00 in0.0 mm 0.00 in0.0 mm
04:16 AM 32.0°F0.0°C -169.6°F-112.0°C - 2.0 mph N3.2 kmh N 5.4 mph8.7 kmh 29.12 in986.1 mb 0.00 in0.0 mm 0.00 in0.0 mm 0.00 in0.0 mm
04:30 AM 32.0°F0.0°C -169.6°F-112.0°C - 2.0 mph N3.2 kmh N 5.4 mph8.7 kmh 29.12 in986.1 mb 0.00 in0.0 mm 0.00 in0.0 mm 0.00 in0.0 mm
04:46 AM 32.5°F0.3°C -169.5°F-111.9°C - 1.4 mph N2.3 kmh N 4.0 mph6.4 kmh 29.10 in985.4 mb 0.00 in0.0 mm 0.00 in0.0 mm 0.00 in0.0 mm
05:01 AM 32.7°F0.4°C -169.5°F-111.9°C - 1.4 mph N2.3 kmh N 6.2 mph10.0 kmh 29.08 in984.8 mb 0.00 in0.0 mm 0.00 in0.0 mm 0.00 in0.0 mm
05:16 AM 32.7°F0.4°C -169.5°F-111.9°C - 1.4 mph N2.3 kmh N 6.2 mph10.0 kmh 29.08 in984.8 mb 0.00 in0.0 mm 0.00 in0.0 mm 0.00 in0.0 mm
05:31 AM 32.7°F0.4°C -169.5°F-111.9°C - 1.4 mph N2.3 kmh N 6.2 mph10.0 kmh 29.08 in984.8 mb 0.00 in0.0 mm 0.00 in0.0 mm 0.00 in0.0 mm
05:46 AM 33.1°F0.6°C -169.5°F-111.9°C - Calm Calm 3.4 mph5.5 kmh 29.05 in983.7 mb 0.00 in0.0 mm 0.00 in0.0 mm 0.00 in0.0 mm
06:01 AM 33.1°F0.6°C -169.5°F-111.9°C - Calm Calm 3.4 mph5.5 kmh 29.05 in983.7 mb 0.00 in0.0 mm 0.00 in0.0 mm 0.00 in0.0 mm
06:16 AM 33.1°F0.6°C -169.5°F-111.9°C - Calm Calm 3.4 mph5.5 kmh 29.05 in983.7 mb 0.00 in0.0 mm 0.00 in0.0 mm 0.00 in0.0 mm
06:30 AM 33.1°F0.6°C -169.5°F-111.9°C - Calm Calm 3.4 mph5.5 kmh 29.05 in983.7 mb 0.00 in0.0 mm 0.00 in0.0 mm 0.00 in0.0 mm
06:45 AM 33.1°F0.6°C -169.5°F-111.9°C - Calm Calm 3.4 mph5.5 kmh 29.05 in983.7 mb 0.00 in0.0 mm 0.00 in0.0 mm 0.00 in0.0 mm
07:01 AM 33.8°F1.0°C -169.4°F-111.9°C - Calm Calm 5.4 mph8.7 kmh 29.01 in982.4 mb 0.00 in0.0 mm 0.00 in0.0 mm 0.00 in0.0 mm
07:16 AM 34.0°F1.1°C -169.4°F-111.9°C - 0.6 mph N1.0 kmh N 3.4 mph5.5 kmh 29.00 in982.1 mb 0.00 in0.0 mm 0.00 in0.0 mm 0.00 in0.0 mm
07:31 AM 34.2°F1.2°C -169.4°F-111.9°C - Calm Calm 2.0 mph3.2 kmh 28.99 in981.7 mb 0.00 in0.0 mm 0.00 in0.0 mm 0.00 in0.0 mm
07:46 AM 34.2°F1.2°C -169.4°F-111.9°C - 1.4 mph N2.3 kmh N 4.0 mph6.4 kmh 28.99 in981.7 mb 0.00 in0.0 mm 0.00 in0.0 mm 0.00 in0.0 mm
08:01 AM 34.3°F1.3°C -169.4°F-111.9°C - 0.6 mph N1.0 kmh N 6.2 mph10.0 kmh 28.99 in981.7 mb 0.00 in0.0 mm 0.00 in0.0 mm 0.00 in0.0 mm
08:16 AM 34.7°F1.5°C -169.3°F-111.8°C - 1.4 mph N2.3 kmh N 6.8 mph10.9 kmh 28.99 in981.7 mb 0.00 in0.0 mm 0.00 in0.0 mm 0.00 in0.0 mm
08:31 AM 34.7°F1.5°C -169.3°F-111.8°C - Calm Calm 1.4 mph2.3 kmh 28.99 in981.7 mb 0.00 in0.0 mm 0.00 in0.0 mm 0.00 in0.0 mm
08:46 AM 34.5°F1.4°C -169.3°F-111.8°C - Calm Calm 3.4 mph5.5 kmh 28.98 in981.4 mb 0.00 in0.0 mm 0.00 in0.0 mm 0.00 in0.0 mm
09:01 AM 33.8°F1.0°C -169.4°F-111.9°C - 0.6 mph N1.0 kmh N 5.4 mph8.7 kmh 28.98 in981.4 mb 0.00 in0.0 mm 0.00 in0.0 mm 0.00 in0.0 mm
09:16 AM 33.6°F0.9°C -169.4°F-111.9°C - 0.6 mph N1.0 kmh N 3.4 mph5.5 kmh 28.97 in981.0 mb 0.00 in0.0 mm 0.00 in0.0 mm 0.00 in0.0 mm
09:31 AM 33.6°F0.9°C -169.4°F-111.9°C - Calm Calm 2.8 mph4.5 kmh 28.97 in981.0 mb 0.00 in0.0 mm 0.00 in0.0 mm 0.00 in0.0 mm
09:46 AM 33.6°F0.9°C -169.4°F-111.9°C - Calm Calm 1.4 mph2.3 kmh 28.97 in981.0 mb 0.00 in0.0 mm 0.00 in0.0 mm 0.00 in0.0 mm
10:01 AM 34.3°F1.3°C -169.4°F-111.9°C - Calm Calm 2.8 mph4.5 kmh 28.98 in981.4 mb 0.00 in0.0 mm 0.00 in0.0 mm 0.00 in0.0 mm
10:16 AM 34.5°F1.4°C -169.3°F-111.8°C - 2.0 mph N3.2 kmh N 6.2 mph10.0 kmh 28.98 in981.4 mb 0.00 in0.0 mm 0.00 in0.0 mm 0.00 in0.0 mm
10:31 AM 34.7°F1.5°C -169.3°F-111.8°C - 0.6 mph N1.0 kmh N 3.4 mph5.5 kmh 28.98 in981.4 mb 0.00 in0.0 mm 0.00 in0.0 mm 0.00 in0.0 mm
10:46 AM 35.2°F1.8°C -169.3°F-111.8°C - 0.6 mph N1.0 kmh N 3.4 mph5.5 kmh 28.97 in981.0 mb 0.00 in0.0 mm 0.00 in0.0 mm 0.00 in0.0 mm
11:01 AM 35.6°F2.0°C -169.2°F-111.8°C - 2.0 mph N3.2 kmh N 4.8 mph7.7 kmh 28.96 in980.7 mb 0.00 in0.0 mm 0.00 in0.0 mm 0.00 in0.0 mm
11:16 AM 36.0°F2.2°C -169.2°F-111.8°C - Calm Calm 1.4 mph2.3 kmh 28.96 in980.7 mb 0.01 in0.3 mm 0.05 in1.3 mm 0.01 in0.3 mm
11:31 AM 36.1°F2.3°C -169.2°F-111.8°C - 1.4 mph N2.3 kmh N 2.8 mph4.5 kmh 28.96 in980.7 mb 0.01 in0.3 mm 0.00 in0.0 mm 0.01 in0.3 mm
11:46 AM 36.9°F2.7°C -169.1°F-111.7°C - 0.6 mph N1.0 kmh N 2.8 mph4.5 kmh 28.96 in980.7 mb 0.02 in0.5 mm 0.05 in1.3 mm 0.02 in0.5 mm
12:01 PM 37.6°F3.1°C -169.0°F-111.7°C - Calm Calm 2.0 mph3.2 kmh 28.95 in980.4 mb 0.02 in0.5 mm 0.00 in0.0 mm 0.02 in0.5 mm
12:16 PM 38.3°F3.5°C -169.0°F-111.7°C - Calm Calm 3.4 mph5.5 kmh 28.94 in980.0 mb 0.00 in0.0 mm 0.00 in0.0 mm 0.02 in0.5 mm
12:31 PM 38.7°F3.7°C -168.9°F-111.6°C - Calm Calm 0.6 mph1.0 kmh 28.93 in979.7 mb 0.00 in0.0 mm 0.00 in0.0 mm 0.02 in0.5 mm
12:46 PM 39.2°F4.0°C -168.9°F-111.6°C - 0.6 mph N1.0 kmh N 4.8 mph7.7 kmh 28.93 in979.7 mb 0.00 in0.0 mm 0.00 in0.0 mm 0.02 in0.5 mm
01:01 PM 39.7°F4.3°C -168.8°F-111.6°C - Calm Calm 0.6 mph1.0 kmh 28.93 in979.7 mb 0.00 in0.0 mm 0.00 in0.0 mm 0.02 in0.5 mm
01:16 PM 40.1°F4.5°C -168.8°F-111.6°C - 3.4 mph N5.5 kmh N 7.4 mph11.9 kmh 28.92 in979.3 mb 0.00 in0.0 mm 0.00 in0.0 mm 0.02 in0.5 mm
01:31 PM 40.1°F4.5°C -168.8°F-111.6°C - Calm Calm 2.0 mph3.2 kmh 28.93 in979.7 mb 0.00 in0.0 mm 0.00 in0.0 mm 0.02 in0.5 mm
01:46 PM 40.5°F4.7°C -168.8°F-111.6°C - Calm Calm 0.6 mph1.0 kmh 28.93 in979.7 mb 0.00 in0.0 mm 0.00 in0.0 mm 0.02 in0.5 mm
02:01 PM 40.8°F4.9°C -168.7°F-111.5°C - 0.6 mph N1.0 kmh N 2.8 mph4.5 kmh 28.93 in979.7 mb 0.00 in0.0 mm 0.00 in0.0 mm 0.02 in0.5 mm
02:16 PM 41.0°F5.0°C -168.7°F-111.5°C - Calm Calm 2.0 mph3.2 kmh 28.92 in979.3 mb 0.00 in0.0 mm 0.00 in0.0 mm 0.02 in0.5 mm
02:31 PM 41.2°F5.1°C -168.7°F-111.5°C - Calm Calm 1.4 mph2.3 kmh 28.92 in979.3 mb 0.00 in0.0 mm 0.00 in0.0 mm 0.02 in0.5 mm
02:46 PM 41.0°F5.0°C -168.7°F-111.5°C - Calm Calm 0.6 mph1.0 kmh 28.91 in979.0 mb 0.00 in0.0 mm 0.00 in0.0 mm 0.02 in0.5 mm
03:01 PM 41.0°F5.0°C -168.7°F-111.5°C - 4.0 mph N6.4 kmh N 7.4 mph11.9 kmh 28.91 in979.0 mb 0.00 in0.0 mm 0.00 in0.0 mm 0.02 in0.5 mm
03:16 PM 41.2°F5.1°C -168.7°F-111.5°C - 2.0 mph N3.2 kmh N 4.8 mph7.7 kmh 28.91 in979.0 mb 0.00 in0.0 mm 0.00 in0.0 mm 0.02 in0.5 mm
03:31 PM 41.0°F5.0°C -168.7°F-111.5°C - Calm Calm 1.4 mph2.3 kmh 28.91 in979.0 mb 0.00 in0.0 mm 0.00 in0.0 mm 0.02 in0.5 mm
03:46 PM 40.6°F4.8°C -168.7°F-111.5°C - 3.4 mph N5.5 kmh N 6.8 mph10.9 kmh 28.92 in979.3 mb 0.00 in0.0 mm 0.00 in0.0 mm 0.02 in0.5 mm
04:01 PM 41.9°F5.5°C -168.6°F-111.4°C - 2.8 mph N4.5 kmh N 9.6 mph15.4 kmh 28.92 in979.3 mb 0.01 in0.3 mm 0.02 in0.5 mm 0.04 in1.0 mm
04:16 PM 41.9°F5.5°C -168.6°F-111.4°C - 4.0 mph N6.4 kmh N 6.8 mph10.9 kmh 28.92 in979.3 mb 0.00 in0.0 mm 0.00 in0.0 mm 0.04 in1.0 mm
04:31 PM 41.2°F5.1°C -168.7°F-111.5°C - 3.4 mph N5.5 kmh N 6.2 mph10.0 kmh 28.92 in979.3 mb 0.00 in0.0 mm 0.00 in0.0 mm 0.04 in1.0 mm
04:46 PM 41.0°F5.0°C -168.7°F-111.5°C - 2.8 mph N4.5 kmh N 5.4 mph8.7 kmh 28.92 in979.3 mb 0.00 in0.0 mm 0.00 in0.0 mm 0.04 in1.0 mm
05:01 PM 41.4°F5.2°C -168.7°F-111.5°C - 1.4 mph N2.3 kmh N 4.8 mph7.7 kmh 28.92 in979.3 mb 0.00 in0.0 mm 0.00 in0.0 mm 0.04 in1.0 mm
05:16 PM 41.5°F5.3°C -168.6°F-111.4°C - 4.0 mph N6.4 kmh N 10.8 mph17.4 kmh 28.93 in979.7 mb 0.00 in0.0 mm 0.00 in0.0 mm 0.04 in1.0 mm
05:31 PM 41.7°F5.4°C -168.6°F-111.4°C - 3.4 mph N5.5 kmh N 6.2 mph10.0 kmh 28.92 in979.3 mb 0.00 in0.0 mm 0.00 in0.0 mm 0.04 in1.0 mm
05:46 PM 41.2°F5.1°C -168.7°F-111.5°C - 5.4 mph N8.7 kmh N 10.8 mph17.4 kmh 28.92 in979.3 mb 0.00 in0.0 mm 0.00 in0.0 mm 0.04 in1.0 mm
06:01 PM 40.5°F4.7°C -168.8°F-111.6°C - 4.0 mph N6.4 kmh N 6.8 mph10.9 kmh 28.94 in980.0 mb 0.00 in0.0 mm 0.00 in0.0 mm 0.04 in1.0 mm
06:16 PM 39.9°F4.4°C -168.8°F-111.6°C - 6.2 mph N10.0 kmh N 13.6 mph21.9 kmh 28.93 in979.7 mb 0.00 in0.0 mm 0.00 in0.0 mm 0.04 in1.0 mm
06:31 PM 39.7°F4.3°C -168.8°F-111.6°C - 4.0 mph N6.4 kmh N 7.4 mph11.9 kmh 28.95 in980.4 mb 0.00 in0.0 mm 0.00 in0.0 mm 0.04 in1.0 mm
06:46 PM 39.2°F4.0°C -168.9°F-111.6°C - 3.4 mph N5.5 kmh N 8.2 mph13.2 kmh 28.97 in981.0 mb 0.01 in0.3 mm 0.05 in1.3 mm 0.05 in1.3 mm
07:01 PM 38.5°F3.6°C -169.0°F-111.7°C - 2.8 mph N4.5 kmh N 5.4 mph8.7 kmh 28.98 in981.4 mb 0.01 in0.3 mm 0.00 in0.0 mm 0.05 in1.3 mm
07:16 PM 38.1°F3.4°C -169.0°F-111.7°C - 3.4 mph N5.5 kmh N 5.4 mph8.7 kmh 28.99 in981.7 mb 0.00 in0.0 mm 0.00 in0.0 mm 0.05 in1.3 mm
07:31 PM 38.1°F3.4°C -169.0°F-111.7°C - 4.8 mph N7.7 kmh N 10.2 mph16.4 kmh 29.00 in982.1 mb 0.00 in0.0 mm 0.00 in0.0 mm 0.05 in1.3 mm
07:46 PM 37.9°F3.3°C -169.0°F-111.7°C - 4.0 mph N6.4 kmh N 8.8 mph14.2 kmh 29.00 in982.1 mb 0.00 in0.0 mm 0.00 in0.0 mm 0.05 in1.3 mm
08:01 PM 37.9°F3.3°C -169.0°F-111.7°C - 2.0 mph N3.2 kmh N 3.4 mph5.5 kmh 29.00 in982.1 mb 0.00 in0.0 mm 0.00 in0.0 mm 0.05 in1.3 mm
08:16 PM 37.9°F3.3°C -169.0°F-111.7°C - 2.0 mph N3.2 kmh N 4.8 mph7.7 kmh 29.01 in982.4 mb 0.00 in0.0 mm 0.00 in0.0 mm 0.05 in1.3 mm
08:31 PM 37.9°F3.3°C -169.0°F-111.7°C - 2.8 mph N4.5 kmh N 6.2 mph10.0 kmh 29.02 in982.7 mb 0.00 in0.0 mm 0.00 in0.0 mm 0.05 in1.3 mm
08:46 PM 38.1°F3.4°C -169.0°F-111.7°C - 2.8 mph N4.5 kmh N 5.4 mph8.7 kmh 29.03 in983.1 mb 0.00 in0.0 mm 0.00 in0.0 mm 0.05 in1.3 mm
09:01 PM 38.1°F3.4°C -169.0°F-111.7°C - 2.0 mph N3.2 kmh N 4.8 mph7.7 kmh 29.03 in983.1 mb 0.00 in0.0 mm 0.00 in0.0 mm 0.05 in1.3 mm
09:16 PM 38.3°F3.5°C -169.0°F-111.7°C - 3.4 mph N5.5 kmh N 6.8 mph10.9 kmh 29.04 in983.4 mb 0.00 in0.0 mm 0.00 in0.0 mm 0.05 in1.3 mm
09:31 PM 38.7°F3.7°C -168.9°F-111.6°C - 2.8 mph N4.5 kmh N 5.4 mph8.7 kmh 29.04 in983.4 mb 0.00 in0.0 mm 0.00 in0.0 mm 0.05 in1.3 mm
09:46 PM 38.8°F3.8°C -168.9°F-111.6°C - 1.4 mph N2.3 kmh N 3.4 mph5.5 kmh 29.04 in983.4 mb 0.00 in0.0 mm 0.00 in0.0 mm 0.05 in1.3 mm
10:01 PM 38.7°F3.7°C -168.9°F-111.6°C - 1.4 mph N2.3 kmh N 2.8 mph4.5 kmh 29.04 in983.4 mb 0.00 in0.0 mm 0.00 in0.0 mm 0.05 in1.3 mm
10:16 PM 37.9°F3.3°C -169.0°F-111.7°C - 2.0 mph N3.2 kmh N 5.4 mph8.7 kmh 29.04 in983.4 mb 0.00 in0.0 mm 0.00 in0.0 mm 0.05 in1.3 mm
10:31 PM 37.9°F3.3°C -169.0°F-111.7°C - Calm Calm 2.0 mph3.2 kmh 29.04 in983.4 mb 0.00 in0.0 mm 0.00 in0.0 mm 0.05 in1.3 mm
10:46 PM 38.7°F3.7°C -168.9°F-111.6°C - Calm Calm 0.6 mph1.0 kmh 29.04 in983.4 mb 0.00 in0.0 mm 0.00 in0.0 mm 0.05 in1.3 mm
11:01 PM 38.8°F3.8°C -168.9°F-111.6°C - Calm Calm 0.6 mph1.0 kmh 29.04 in983.4 mb 0.00 in0.0 mm 0.00 in0.0 mm 0.05 in1.3 mm
11:16 PM 38.8°F3.8°C -168.9°F-111.6°C - 0.6 mph N1.0 kmh N 2.0 mph3.2 kmh 29.04 in983.4 mb 0.00 in0.0 mm 0.00 in0.0 mm 0.05 in1.3 mm
11:31 PM 38.8°F3.8°C -168.9°F-111.6°C - 1.4 mph N2.3 kmh N 4.8 mph7.7 kmh 29.04 in983.4 mb 0.00 in0.0 mm 0.00 in0.0 mm 0.05 in1.3 mm
11:46 PM 39.0°F3.9°C -168.9°F-111.6°C - Calm Calm 0.6 mph1.0 kmh 29.03 in983.1 mb 0.00 in0.0 mm 0.00 in0.0 mm 0.05 in1.3 mm